Time;durP1;ratioP1;P1;durP2;ratioP2;P2;SDS_P1;SDS_P2;PMS_P1;PMS_P2;Temp;Humidity;BMP_temperature;BMP_pressure;BME280_temperature;BME280_humidity;BME280_pressure;Samples;Min_cycle;Max_cycle;Signal;HPM_P1;HPM_P2
2021/04/04 00:02:26;;;;;;;18.83;13.30;;;5.00;8.10;6.60;101340.00;;;;5095067;28;20542;-77
2021/04/04 00:04:54;;;;;;;25.00;14.37;;;4.90;8.40;6.60;67705.00;;;;5082616;28;20438;-77
2021/04/04 00:07:22;;;;;;;16.63;13.00;;;4.90;9.00;6.50;101341.00;;;;5086259;28;20462;-77
2021/04/04 00:09:50;;;;;;;22.60;13.60;;;4.90;9.20;6.50;101336.00;;;;5085342;28;21021;-78
2021/04/04 00:12:17;;;;;;;19.70;13.97;;;4.90;9.80;6.50;101032.00;;;;5081191;28;20466;-78
2021/04/04 00:14:45;;;;;;;18.53;13.87;;;4.90;10.40;6.40;101339.00;;;;5079038;28;20465;-79
2021/04/04 00:17:13;;;;;;;21.73;13.20;;;4.80;11.00;6.40;101347.00;;;;5085776;28;21026;-78
2021/04/04 00:19:40;;;;;;;24.03;13.87;;;4.80;11.30;6.40;101333.00;;;;5087433;28;20454;-79
2021/04/04 00:22:08;;;;;;;17.00;12.63;;;4.70;11.50;6.30;101336.00;;;;5093843;28;20480;-78
2021/04/04 00:24:37;;;;;;;18.67;11.53;;;4.70;11.10;6.30;101316.00;;;;5106827;28;20454;-78
2021/04/04 00:27:04;;;;;;;16.70;12.73;;;4.70;10.90;52.70;159389.00;;;;5107719;28;20439;-79
2021/04/04 00:29:32;;;;;;;20.43;14.20;;;4.70;11.10;6.30;101327.00;;;;5106257;28;20622;-79
2021/04/04 00:32:00;;;;;;;20.50;12.60;;;4.60;12.10;6.30;101337.00;;;;5114265;28;20519;-79
2021/04/04 00:34:27;;;;;;;20.53;12.17;;;4.60;12.30;6.30;101336.00;;;;5098022;28;20438;-79
2021/04/04 00:36:54;;;;;;;15.90;11.40;;;4.60;12.50;6.20;101325.00;;;;5109659;28;20443;-79
2021/04/04 00:39:22;;;;;;;20.33;12.30;;;4.60;12.40;6.20;101327.00;;;;5112242;28;20449;-78
2021/04/04 00:41:51;;;;;;;22.90;14.27;;;4.60;12.30;6.20;101328.00;;;;5109596;28;20527;-79
2021/04/04 00:44:18;;;;;;;20.83;12.40;;;4.60;12.70;6.10;101321.00;;;;5115074;28;20441;-77
2021/04/04 00:46:46;;;;;;;22.30;11.43;;;4.60;12.90;6.00;101329.00;;;;5101941;28;20454;-79
2021/04/04 00:49:13;;;;;;;15.37;11.47;;;4.40;12.90;6.00;101316.00;;;;5100300;28;20481;-78
2021/04/04 00:51:41;;;;;;;17.17;13.60;;;4.30;12.60;6.00;101323.00;;;;5092089;28;20454;-79
2021/04/04 00:54:16;;;;;;;24.67;15.77;;;4.20;12.80;6.00;101326.00;;;;5093037;28;20443;-79
2021/04/04 00:56:43;;;;;;;22.93;15.40;;;4.40;12.70;5.90;101334.00;;;;5093042;28;20450;-79
2021/04/04 00:59:14;;;;;;;19.17;14.67;;;4.30;13.70;5.90;101315.00;;;;5091555;28;20516;-79
2021/04/04 01:01:47;;;;;;;18.17;12.97;;;4.40;13.70;5.90;101314.00;;;;5093918;28;20531;-79
2021/04/04 01:04:14;;;;;;;19.13;14.10;;;4.40;13.70;5.90;101313.00;;;;5095936;28;20496;-79
2021/04/04 01:06:42;;;;;;;16.53;11.10;;;4.40;14.10;5.90;101328.00;;;;5097670;28;20450;-79
2021/04/04 01:09:09;;;;;;;17.27;11.63;;;4.50;13.20;6.00;101317.00;;;;5094202;28;20498;-79
2021/04/04 01:11:47;;;;;;;20.00;13.47;;;4.50;13.30;6.00;101321.00;;;;5100023;28;20477;-79
2021/04/04 01:14:27;;;;;;;20.57;12.80;;;4.50;12.50;6.00;101311.00;;;;5111515;28;20475;-78
2021/04/04 01:17:00;;;;;;;13.60;10.97;;;4.50;13.10;5.90;101321.00;;;;5109165;28;20461;-78
2021/04/04 01:19:45;;;;;;;15.77;11.80;;;4.60;13.70;5.80;101327.00;;;;5106307;28;20438;-77
2021/04/04 01:22:26;;;;;;;19.03;12.30;;;4.40;13.40;5.80;101324.00;;;;5089353;28;20466;-77
2021/04/04 01:25:05;;;;;;;14.33;9.07;;;4.30;13.70;5.70;101322.00;;;;5077070;28;20523;-78
2021/04/04 01:27:45;;;;;;;12.17;9.97;;;4.20;13.30;5.80;67536.00;;;;5085703;28;20457;-79
2021/04/04 01:30:16;;;;;;;15.33;9.30;;;4.30;13.40;5.80;101077.00;;;;5086392;28;20466;-78
2021/04/04 01:32:47;;;;;;;16.83;10.40;;;4.30;13.30;5.80;101320.00;;;;5080751;28;20466;-78
2021/04/04 01:35:19;;;;;;;14.30;10.10;;;4.40;13.60;5.80;101335.00;;;;5089647;28;20501;-79
2021/04/04 01:37:52;;;;;;;13.60;9.87;;;4.40;13.70;5.80;101329.00;;;;5092825;28;20456;-78
2021/04/04 01:40:22;;;;;;;14.53;9.33;;;4.30;14.00;5.80;101308.00;;;;5093143;28;21045;-78
2021/04/04 01:42:52;;;;;;;18.00;10.00;;;4.30;13.80;5.80;101321.00;;;;5096306;28;20501;-78
2021/04/04 01:45:21;;;;;;;13.27;8.90;;;4.30;13.80;5.80;101327.00;;;;5090635;28;20439;-78
2021/04/04 01:47:49;;;;;;;14.00;9.53;;;4.40;12.50;5.80;101323.00;;;;5087848;28;20451;-78
2021/04/04 01:50:17;;;;;;;15.93;9.63;;;4.50;13.00;5.80;101321.00;;;;5098160;28;21020;-78
2021/04/04 01:52:45;;;;;;;13.43;9.60;;;4.40;13.20;5.80;101329.00;;;;5101782;28;20474;-78
2021/04/04 01:55:14;;;;;;;10.87;6.70;;;4.50;13.00;5.80;101308.00;;;;5091331;28;20449;-78
2021/04/04 01:57:42;;;;;;;17.30;8.20;;;4.50;11.90;52.70;159207.00;;;;5095122;28;20496;-78
2021/04/04 02:00:16;;;;;;;13.60;9.10;;;4.60;11.50;5.90;101315.00;;;;5090557;28;20457;-78
2021/04/04 02:02:46;;;;;;;11.60;7.63;;;4.60;11.50;5.90;101306.00;;;;5087471;28;20824;-78
2021/04/04 02:05:16;;;;;;;16.40;8.87;;;4.60;11.80;5.90;101305.00;;;;5088213;28;20560;-79
2021/04/04 02:07:47;;;;;;;16.00;7.90;;;4.70;11.90;5.90;101308.00;;;;5090366;28;20478;-78
2021/04/04 02:10:17;;;;;;;13.00;8.93;;;4.70;11.60;6.00;101308.00;;;;5090269;28;20495;-78
2021/04/04 02:12:45;;;;;;;13.10;7.23;;;4.80;11.60;6.00;101301.00;;;;5095788;28;20483;-78
2021/04/04 02:15:16;;;;;;;12.10;7.67;;;4.80;11.30;6.00;101294.00;;;;5085654;28;20493;-78
2021/04/04 02:17:47;;;;;;;13.27;7.90;;;4.80;11.60;6.00;101308.00;;;;5094558;28;20456;-78
2021/04/04 02:20:17;;;;;;;14.97;7.07;;;4.80;11.30;6.00;101303.00;;;;5093252;28;20464;-79
2021/04/04 02:22:47;;;;;;;13.17;6.77;;;4.90;11.20;6.00;101301.00;;;;5091219;28;20475;-78
2021/04/04 02:25:16;;;;;;;16.13;7.57;;;4.90;11.40;6.00;101299.00;;;;5091841;28;20446;-78
2021/04/04 02:27:45;;;;;;;14.17;7.97;;;4.90;11.70;6.00;101314.00;;;;5097351;28;20464;-79
2021/04/04 02:30:17;;;;;;;13.23;7.17;;;4.90;11.70;6.00;67592.00;;;;5098799;28;20486;-80
2021/04/04 02:32:53;;;;;;;13.37;7.20;;;4.90;11.70;6.00;101303.00;;;;5098337;28;20481;-79
2021/04/04 02:35:30;;;;;;;11.00;7.20;;;4.90;12.20;6.10;101305.00;;;;5106662;28;20544;-79
2021/04/04 02:38:02;;;;;;;13.57;8.10;;;4.90;12.50;6.10;101290.00;;;;5093388;28;20450;-79
2021/04/04 02:40:33;;;;;;;15.30;7.57;;;4.90;13.20;6.10;101310.00;;;;5094953;28;20454;-79
2021/04/04 02:43:02;;;;;;;16.37;7.27;;;5.00;13.10;6.00;101298.00;;;;5090808;28;20557;-79
2021/04/04 02:45:31;;;;;;;15.23;7.50;;;5.00;12.60;217.30;159280.00;;;;5087100;28;20832;-79
2021/04/04 02:48:03;;;;;;;10.47;7.73;;;4.90;12.10;6.00;101305.00;;;;5083115;28;21324;-78
2021/04/04 02:50:32;;;;;;;13.67;7.60;;;4.80;13.00;6.00;101309.00;;;;5083247;28;20489;-78
2021/04/04 02:53:01;;;;;;;11.67;7.40;;;4.80;13.30;6.00;101303.00;;;;5084008;28;21079;-79
2021/04/04 02:55:32;;;;;;;14.00;8.80;;;4.80;13.50;6.00;67582.00;;;;5083409;28;20449;-79
2021/04/04 02:58:05;;;;;;;14.10;7.87;;;4.90;13.90;6.00;101301.00;;;;5084218;28;20897;-78
2021/04/04 03:00:34;;;;;;;14.37;7.70;;;4.90;13.60;5.90;101312.00;;;;5082891;28;21260;-78
2021/04/04 03:03:05;;;;;;;15.27;7.80;;;4.80;13.50;5.90;101314.00;;;;5080618;28;21138;-78
2021/04/04 03:05:33;;;;;;;13.03;7.47;;;4.70;13.90;5.90;101325.00;;;;5083957;28;20502;-78
2021/04/04 03:08:04;;;;;;;14.70;8.57;;;4.70;14.40;217.30;159201.00;;;;5084021;28;20554;-78
2021/04/04 03:10:32;;;;;;;13.50;7.20;;;4.70;15.30;5.90;101308.00;;;;5082999;28;20488;-78
2021/04/04 03:13:00;;;;;;;13.20;7.33;;;4.70;14.60;5.90;101309.00;;;;5083703;28;20508;-78
2021/04/04 03:15:30;;;;;;;14.67;8.20;;;4.70;15.20;5.90;101318.00;;;;5076731;28;20446;-78
2021/04/04 03:17:59;;;;;;;13.57;7.53;;;4.70;15.70;5.90;101321.00;;;;5085251;28;20471;-78
2021/04/04 03:20:27;;;;;;;17.00;8.07;;;4.70;15.80;5.90;101317.00;;;;5082480;28;20450;-79
2021/04/04 03:22:56;;;;;;;16.80;8.23;;;4.70;16.10;5.90;101314.00;;;;5081665;28;20466;-78
2021/04/04 03:25:25;;;;;;;15.87;8.57;;;4.80;16.50;5.90;101313.00;;;;5082417;28;20473;-78
2021/04/04 03:27:54;;;;;;;16.43;8.53;;;4.80;16.20;5.90;101313.00;;;;5078858;28;20464;-78
2021/04/04 03:30:35;;;;;;;13.87;8.20;;;4.80;16.10;5.90;101312.00;;;;5081708;28;20660;-78
2021/04/04 03:33:06;;;;;;;15.10;8.20;;;4.80;16.20;5.90;101317.00;;;;5086301;28;20476;-79
2021/04/04 03:35:35;;;;;;;13.00;7.97;;;4.80;16.40;5.90;101307.00;;;;5086447;28;20548;-78
2021/04/04 03:38:06;;;;;;;16.13;8.93;;;4.80;17.10;5.90;101316.00;;;;5085805;28;20446;-79
2021/04/04 03:40:33;;;;;;;17.27;8.77;;;4.80;16.50;5.80;101307.00;;;;5081410;28;20449;-78
2021/04/04 03:43:07;;;;;;;17.63;8.30;;;4.70;16.90;5.80;101308.00;;;;5086486;28;20861;-79
2021/04/04 03:45:36;;;;;;;16.73;9.90;;;4.60;17.40;5.70;101303.00;;;;5087502;28;20464;-78
2021/04/04 03:48:06;;;;;;;15.80;8.63;;;4.50;18.00;5.70;101303.00;;;;5084379;28;20495;-78
2021/04/04 03:50:36;;;;;;;12.13;8.80;;;4.50;18.20;5.70;101302.00;;;;5100656;28;20551;-78
2021/04/04 03:53:05;;;;;;;17.30;9.57;;;4.50;18.50;5.70;101315.00;;;;5085163;28;21047;-78
2021/04/04 03:55:33;;;;;;;18.10;10.20;;;4.50;18.90;5.60;101319.00;;;;5082198;28;20454;-79
2021/04/04 03:58:04;;;;;;;19.37;9.70;;;4.50;18.80;5.70;101308.00;;;;5080880;28;21494;-77
2021/04/04 04:00:34;;;;;;;18.77;9.17;;;4.50;18.80;5.70;101301.00;;;;5082842;28;20465;-79
2021/04/04 04:03:04;;;;;;;17.63;10.50;;;4.50;18.80;5.70;101304.00;;;;5085165;28;20891;-79
2021/04/04 04:05:32;;;;;;;16.20;9.60;;;4.50;19.00;5.60;101306.00;;;;5089954;28;21000;-78
2021/04/04 04:08:01;;;;;;;12.40;8.20;;;4.50;19.10;5.60;101298.00;;;;5089400;28;20554;-78
2021/04/04 04:10:29;;;;;;;12.50;8.57;;;4.40;18.90;5.60;101311.00;;;;5088692;28;20516;-78
2021/04/04 04:12:59;;;;;;;14.00;7.63;;;4.40;19.30;5.60;101304.00;;;;5087135;28;20466;-79
2021/04/04 04:15:29;;;;;;;16.63;8.53;;;4.40;18.90;5.50;101299.00;;;;5087757;28;20504;-78
2021/04/04 04:17:58;;;;;;;11.37;8.37;;;4.30;18.40;5.50;101303.00;;;;5085413;28;20488;-78
2021/04/04 04:20:28;;;;;;;12.53;7.93;;;4.20;18.70;5.50;101300.00;;;;5092283;28;20458;-79
2021/04/04 04:22:59;;;;;;;16.50;9.07;;;4.20;19.50;5.50;67457.00;;;;5085794;28;21204;-78
2021/04/04 04:25:27;;;;;;;15.83;7.43;;;4.10;19.50;5.40;101307.00;;;;5088624;28;20512;-79
2021/04/04 04:27:55;;;;;;;17.60;8.90;;;4.10;20.10;5.40;101300.00;;;;5085368;28;20458;-78
2021/04/04 04:30:27;;;;;;;13.63;7.90;;;4.10;20.40;5.30;101301.00;;;;5083770;28;20474;-78
2021/04/04 04:33:00;;;;;;;12.47;8.03;;;4.00;20.30;5.30;101305.00;;;;5087838;28;20501;-78
2021/04/04 04:35:30;;;;;;;15.60;8.90;;;4.00;20.90;5.40;101304.00;;;;5087229;28;20997;-78
2021/04/04 04:37:59;;;;;;;20.63;9.03;;;4.00;21.30;5.30;101312.00;;;;5088156;28;20522;-79
2021/04/04 04:40:28;;;;;;;13.83;8.43;;;3.90;21.20;5.30;101308.00;;;;5094584;28;20526;-78
2021/04/04 04:42:57;;;;;;;16.17;9.40;;;3.80;21.90;5.30;101307.00;;;;5091041;28;20565;-78
2021/04/04 04:45:31;;;;;;;12.20;7.40;;;3.90;22.30;5.30;101314.00;;;;5105285;28;20484;-78
2021/04/04 04:47:59;;;;;;;14.60;7.80;;;4.00;21.60;5.30;101312.00;;;;5107648;28;20454;-79
2021/04/04 04:50:29;;;;;;;14.43;8.37;;;3.80;21.40;5.30;67422.00;;;;5094593;28;21075;-78
2021/04/04 04:52:59;;;;;;;15.20;8.33;;;3.80;21.10;217.30;158966.00;;;;5087997;28;20470;-79
2021/04/04 04:55:28;;;;;;;15.73;8.87;;;3.80;21.20;5.40;101305.00;;;;5087386;28;20454;-78
2021/04/04 04:57:58;;;;;;;14.73;9.10;;;3.80;21.20;5.40;101305.00;;;;5087901;28;20462;-77
2021/04/04 05:00:27;;;;;;;14.30;8.60;;;3.80;21.10;5.50;67484.00;;;;5086889;28;20454;-78
2021/04/04 05:02:55;;;;;;;14.70;9.50;;;3.90;21.60;5.60;101291.00;;;;5087905;28;20978;-79
2021/04/04 05:05:22;;;;;;;13.40;9.00;;;4.10;21.40;5.80;101284.00;;;;5089043;28;20984;-79
2021/04/04 05:07:54;;;;;;;15.77;9.20;;;4.10;20.80;6.00;101288.00;;;;5089650;28;20470;-77
2021/04/04 05:10:22;;;;;;;14.30;8.57;;;4.20;20.10;6.10;101300.00;;;;5088673;28;20486;-78
2021/04/04 05:12:54;;;;;;;12.47;8.13;;;4.40;19.80;6.20;101285.00;;;;5091655;28;20466;-78
2021/04/04 05:15:25;;;;;;;13.87;8.70;;;4.50;19.20;6.30;101295.00;;;;5089429;28;21088;-78
2021/04/04 05:17:53;;;;;;;13.47;7.97;;;4.60;19.30;6.30;101306.00;;;;5088970;28;20458;-77
2021/04/04 05:20:22;;;;;;;13.43;7.70;;;4.80;19.90;6.40;101294.00;;;;5088959;28;20453;-77
2021/04/04 05:22:50;;;;;;;16.57;9.13;;;5.10;19.90;6.60;101283.00;;;;5102208;28;20545;-77
2021/04/04 05:25:18;;;;;;;15.30;9.57;;;5.10;19.00;6.70;101296.00;;;;5090969;28;20453;-79
2021/04/04 05:27:45;;;;;;;20.93;8.73;;;5.20;18.70;6.70;101290.00;;;;5106552;28;20439;-78
2021/04/04 05:30:14;;;;;;;13.93;9.20;;;5.20;19.10;6.70;101292.00;;;;5101047;28;20954;-79
2021/04/04 05:32:45;;;;;;;16.83;8.77;;;5.30;18.40;6.80;101285.00;;;;5092172;28;20504;-77
2021/04/04 05:35:16;;;;;;;19.13;8.67;;;5.40;18.40;6.80;101292.00;;;;5085165;28;20543;-79
2021/04/04 05:37:51;;;;;;;18.63;9.77;;;5.40;18.20;6.90;101297.00;;;;5086038;28;20442;-77
2021/04/04 05:40:22;;;;;;;13.83;8.90;;;5.40;18.70;6.90;101302.00;;;;5085124;28;21024;-78
2021/04/04 05:42:55;;;;;;;16.67;8.27;;;5.40;18.40;6.90;101310.00;;;;5101831;28;20473;-79
2021/04/04 05:45:32;;;;;;;13.40;8.17;;;5.50;18.80;6.90;101300.00;;;;5083806;28;20552;-78
2021/04/04 05:48:22;;;;;;;14.03;8.57;;;5.50;17.80;7.00;101298.00;;;;5085458;28;20503;-77
2021/04/04 05:51:16;;;;;;;18.50;8.77;;;5.60;17.70;7.10;101321.00;;;;5084199;28;21162;-78
2021/04/04 05:54:09;;;;;;;16.73;10.67;;;5.60;18.20;7.20;67853.00;;;;5086461;28;20462;-77
2021/04/04 05:56:46;;;;;;;17.63;9.23;;;5.70;16.90;7.30;101308.00;;;;5095918;28;20457;-79
2021/04/04 05:59:22;;;;;;;14.97;9.10;;;5.70;16.70;7.40;101317.00;;;;5104779;28;20479;-78
2021/04/04 06:02:56;;;;;;;15.63;9.07;;;5.80;16.70;7.60;101304.00;;;;5104469;28;20478;-77
2021/04/04 06:05:42;;;;;;;16.43;8.87;;;5.90;16.50;7.60;101316.00;;;;5092563;28;20469;-78
2021/04/04 06:08:43;;;;;;;14.90;9.77;;;5.90;16.20;7.70;101320.00;;;;5103399;28;20522;-78
2021/04/04 06:11:27;;;;;;;14.43;7.77;;;5.90;16.50;7.80;67977.00;;;;5104778;28;20574;-78
2021/04/04 06:14:07;;;;;;;16.00;8.90;;;6.00;16.30;7.90;101318.00;;;;5100014;28;20533;-78
2021/04/04 06:16:50;;;;;;;18.53;9.20;;;6.10;15.80;7.90;101322.00;;;;5085088;28;21034;-78
2021/04/04 06:19:28;;;;;;;16.00;8.73;;;6.30;15.50;7.90;101313.00;;;;5085644;28;20453;-77
2021/04/04 06:22:08;;;;;;;15.07;8.47;;;6.40;15.20;8.20;101321.00;;;;5085380;28;20515;-79
2021/04/04 06:24:45;;;;;;;18.80;9.00;;;6.50;15.10;8.30;101313.00;;;;5086774;28;20493;-80
2021/04/04 06:27:24;;;;;;;15.63;9.10;;;6.60;14.80;8.50;101314.00;;;;5092116;28;20502;-79
2021/04/04 06:30:20;;;;;;;14.50;9.30;;;6.80;14.50;8.70;101324.00;;;;5088256;28;20442;-78
2021/04/04 06:33:01;;;;;;;18.17;8.50;;;7.00;14.20;8.90;101314.00;;;;5093467;28;20470;-78
2021/04/04 06:35:38;;;;;;;14.40;9.07;;;7.10;13.60;9.00;101314.00;;;;5085538;28;20438;-78
2021/04/04 06:38:29;;;;;;;16.47;9.60;;;7.20;13.40;9.30;101310.00;;;;5084414;28;20454;-79
2021/04/04 06:41:09;;;;;;;16.80;8.63;;;7.30;12.80;9.40;101312.00;;;;5099621;28;21092;-79
2021/04/04 06:43:47;;;;;;;12.73;7.73;;;7.50;12.30;9.40;101313.00;;;;5091804;28;20523;-78
2021/04/04 06:46:29;;;;;;;16.43;8.10;;;7.60;12.10;9.40;101319.00;;;;5094707;28;20476;-78
2021/04/04 06:49:08;;;;;;;21.63;7.73;;;7.60;11.90;9.40;101311.00;;;;5096236;28;20442;-79
2021/04/04 06:51:49;;;;;;;18.70;8.97;;;7.80;11.60;9.60;101314.00;;;;5093635;28;20788;-79
2021/04/04 06:54:31;;;;;;;19.20;9.00;;;7.80;11.50;9.60;101309.00;;;;5090776;28;20473;-81
2021/04/04 06:57:12;;;;;;;15.20;9.07;;;7.80;10.90;9.50;101324.00;;;;5092837;28;20544;-78
2021/04/04 06:59:59;;;;;;;20.97;8.33;;;7.90;10.80;9.40;101310.00;;;;5078410;28;20450;-77
2021/04/04 07:02:34;;;;;;;16.60;9.40;;;7.80;10.80;9.40;101310.00;;;;5091576;28;20993;-78
2021/04/04 07:05:09;;;;;;;21.97;8.60;;;7.70;10.70;9.20;101316.00;;;;5088281;28;20450;-77
2021/04/04 07:08:05;;;;;;;16.23;8.97;;;7.70;11.30;9.00;101326.00;;;;5095510;28;20454;-79
2021/04/04 07:10:55;;;;;;;27.87;8.30;;;7.60;11.30;8.70;68193.00;;;;5089264;28;20554;-80
2021/04/04 07:13:39;;;;;;;14.83;7.73;;;7.40;11.90;8.60;101312.00;;;;5111425;28;20545;-80
2021/04/04 07:17:14;;;;;;;12.67;7.80;;;7.30;12.00;8.60;101310.00;;;;5101870;28;20536;-79
2021/04/04 07:20:10;;;;;;;20.07;8.40;;;7.40;12.10;8.70;101309.00;;;;5057918;28;20467;-79
2021/04/04 07:23:13;;;;;;;24.90;8.97;;;7.50;12.00;8.90;101306.00;;;;5047943;28;20472;-79
2021/04/04 07:25:48;;;;;;;20.00;8.70;;;7.70;11.60;9.00;101297.00;;;;5108161;28;20541;-80
2021/04/04 07:28:42;;;;;;;13.93;8.43;;;7.80;11.20;9.10;101306.00;;;;5120840;28;20441;-79
2021/04/04 07:31:14;;;;;;;18.70;8.93;;;7.80;10.90;9.20;101299.00;;;;5111634;28;20475;-80
2021/04/04 07:33:51;;;;;;;18.23;9.20;;;7.90;10.80;9.30;101299.00;;;;5114368;28;20517;-79
2021/04/04 07:36:28;;;;;;;17.40;7.90;;;8.10;10.60;9.50;101303.00;;;;5103632;28;20450;-77
2021/04/04 07:39:00;;;;;;;18.70;9.27;;;8.20;10.30;9.50;101293.00;;;;5087087;28;20473;-78
2021/04/04 07:41:39;;;;;;;18.23;8.67;;;8.20;10.00;9.60;101305.00;;;;5101406;28;20453;-79
2021/04/04 07:44:18;;;;;;;20.20;9.53;;;8.40;10.00;9.60;101291.00;;;;5098355;28;20973;-77
2021/04/04 07:46:53;;;;;;;15.77;7.87;;;8.50;9.80;9.70;101302.00;;;;5090103;28;20455;-77
2021/04/04 07:49:40;;;;;;;17.57;8.57;;;8.60;9.10;9.80;101304.00;;;;5090386;28;20735;-76
2021/04/04 07:52:17;;;;;;;23.00;9.60;;;8.60;9.00;9.80;101297.00;;;;5088694;28;21393;-76
2021/04/04 07:55:04;;;;;;;15.87;9.20;;;8.60;8.90;9.80;101299.00;;;;5086761;28;21126;-77
2021/04/04 07:57:45;;;;;;;16.20;8.63;;;8.60;9.00;9.80;101304.00;;;;5085807;28;20975;-75
2021/04/04 08:00:16;;;;;;;21.37;9.07;;;8.70;8.90;9.90;101288.00;;;;5086629;28;20922;-75
2021/04/04 08:02:50;;;;;;;15.37;8.47;;;8.70;9.00;9.90;101303.00;;;;5083852;28;20466;-75
2021/04/04 08:05:26;;;;;;;19.03;8.93;;;8.80;8.30;10.00;101298.00;;;;5085719;28;20988;-77
2021/04/04 08:08:00;;;;;;;19.50;9.23;;;8.80;8.50;10.00;101299.00;;;;5087652;28;20450;-78
2021/04/04 08:10:32;;;;;;;15.07;8.90;;;8.90;8.30;10.10;101293.00;;;;5087891;28;20482;-79
2021/04/04 08:13:10;;;;;;;15.97;8.67;;;8.90;7.70;10.20;101285.00;;;;5089690;28;21101;-79
2021/04/04 08:15:46;;;;;;;20.50;9.33;;;9.00;7.80;10.20;101296.00;;;;5088422;28;20532;-80
2021/04/04 08:18:14;;;;;;;26.67;10.50;;;9.10;7.20;10.20;101293.00;;;;5089722;28;20486;-79
2021/04/04 08:20:49;;;;;;;18.70;8.97;;;9.10;6.80;10.30;101288.00;;;;5098379;28;20457;-79
2021/04/04 08:23:24;;;;;;;16.60;8.90;;;9.20;7.00;10.30;101288.00;;;;5110358;28;20474;-78
2021/04/04 08:25:57;;;;;;;19.40;8.67;;;9.30;6.70;10.30;101285.00;;;;5103003;28;20462;-79
2021/04/04 08:28:32;;;;;;;18.70;8.60;;;9.20;5.60;10.50;101294.00;;;;5096892;28;20442;-80
2021/04/04 08:31:12;;;;;;;14.00;9.40;;;9.40;6.00;10.50;101287.00;;;;5092208;28;20473;-77
2021/04/04 08:33:46;;;;;;;18.20;8.70;;;9.50;6.10;10.60;101277.00;;;;5094961;28;20465;-79
2021/04/04 08:36:22;;;;;;;26.67;9.20;;;9.50;4.40;10.80;101287.00;;;;5098971;28;20487;-79
2021/04/04 08:38:53;;;;;;;21.50;8.30;;;9.60;4.70;10.80;101279.00;;;;5097349;28;20460;-78
2021/04/04 08:41:21;;;;;;;17.73;8.70;;;9.70;4.90;11.00;101272.00;;;;5091403;28;20458;-79
2021/04/04 08:44:04;;;;;;;18.57;9.03;;;9.80;4.50;11.00;101277.00;;;;5088228;28;21013;-80
2021/04/04 08:46:40;;;;;;;15.87;8.47;;;9.90;3.60;11.10;101273.00;;;;5090077;28;20447;-78
2021/04/04 08:49:08;;;;;;;15.53;7.33;;;10.00;2.60;11.20;101263.00;;;;5096111;28;20464;-79
2021/04/04 08:51:42;;;;;;;15.10;8.53;;;10.10;2.00;11.30;101269.00;;;;5084050;28;20474;-78
2021/04/04 08:54:18;;;;;;;17.47;10.10;;;10.30;1.50;11.40;101269.00;;;;5087929;28;20503;-79
2021/04/04 08:56:47;;;;;;;13.70;8.10;;;10.20;1.10;11.50;101268.00;;;;5090309;28;20462;-78
2021/04/04 08:59:18;;;;;;;14.87;8.37;;;10.30;1.10;11.50;101273.00;;;;5093168;28;20454;-79
2021/04/04 09:01:54;;;;;;;19.77;9.33;;;10.40;1.00;11.70;101283.00;;;;5091077;28;20866;-79
2021/04/04 09:04:26;;;;;;;19.60;9.63;;;10.50;1.00;11.70;101276.00;;;;5088997;28;20454;-79
2021/04/04 09:07:03;;;;;;;12.27;8.37;;;10.60;1.00;11.80;101268.00;;;;5091403;28;20532;-79
2021/04/04 09:09:37;;;;;;;18.10;8.70;;;10.60;1.00;11.90;101263.00;;;;5089608;28;20442;-78
2021/04/04 09:12:06;;;;;;;18.10;8.80;;;10.70;1.00;12.00;101277.00;;;;5086185;28;21431;-79
2021/04/04 09:14:36;;;;;;;18.23;8.40;;;10.80;1.00;12.00;101271.00;;;;5088754;28;21177;-79
2021/04/04 09:17:10;;;;;;;20.10;9.23;;;10.70;1.00;12.10;101273.00;;;;5089718;28;20442;-81
2021/04/04 09:19:40;;;;;;;20.40;9.17;;;10.70;1.00;12.30;101273.00;;;;5087822;28;20481;-78
2021/04/04 09:22:18;;;;;;;17.27;10.53;;;10.80;1.00;12.70;101276.00;;;;5087757;28;21077;-79
2021/04/04 09:24:53;;;;;;;18.00;9.17;;;11.10;1.00;13.50;101275.00;;;;5087707;28;20837;-78
2021/04/04 09:27:24;;;;;;;18.90;8.47;;;11.80;1.00;13.60;101270.00;;;;5086669;28;20564;-79
2021/04/04 09:29:56;;;;;;;20.67;9.03;;;11.90;1.00;13.50;101283.00;;;;5087299;28;20486;-79
2021/04/04 09:32:34;;;;;;;21.90;9.83;;;11.80;1.00;13.60;101282.00;;;;5086646;28;21255;-79
2021/04/04 09:35:03;;;;;;;14.67;7.87;;;11.70;1.00;13.80;101266.00;;;;5104436;28;21172;-78
2021/04/04 09:37:32;;;;;;;20.20;9.60;;;11.90;1.00;14.00;101267.00;;;;5087993;28;20589;-79
2021/04/04 09:40:00;;;;;;;17.60;8.43;;;12.00;1.00;14.30;101271.00;;;;5087128;28;20495;-78
2021/04/04 09:42:30;;;;;;;16.13;8.40;;;12.10;1.00;14.60;101267.00;;;;5088250;28;20817;-78
2021/04/04 09:45:14;;;;;;;20.00;8.63;;;12.20;1.00;14.90;101263.00;;;;5086864;28;20493;-78
2021/04/04 09:47:43;;;;;;;14.10;8.60;;;12.50;1.00;15.10;101258.00;;;;5101189;28;20544;-79
2021/04/04 09:50:23;;;;;;;18.20;10.03;;;12.70;1.00;15.10;101264.00;;;;5088726;28;20454;-79
2021/04/04 09:52:53;;;;;;;19.17;10.07;;;12.80;1.00;14.90;101272.00;;;;5105381;28;20461;-79
2021/04/04 09:55:22;;;;;;;18.33;8.90;;;12.80;1.00;14.70;101257.00;;;;5095170;28;20450;-79
2021/04/04 09:58:00;;;;;;;15.30;10.90;;;12.70;1.00;14.90;101265.00;;;;5100596;28;20527;-79
2021/04/04 10:00:30;;;;;;;18.77;9.37;;;12.70;1.00;14.80;101247.00;;;;5088404;28;20454;-79
2021/04/04 10:03:09;;;;;;;20.77;9.87;;;12.70;1.00;14.90;101246.00;;;;5090976;28;20526;-79
2021/04/04 10:05:39;;;;;;;17.93;9.80;;;12.70;1.00;15.10;101249.00;;;;5091508;28;20438;-79
2021/04/04 10:08:14;;;;;;;19.00;10.20;;;12.80;1.00;15.30;101246.00;;;;5094820;28;20468;-79
2021/04/04 10:10:44;;;;;;;16.70;8.73;;;13.00;1.00;15.50;101248.00;;;;5110661;28;20467;-80
2021/04/04 10:13:12;;;;;;;16.00;8.63;;;13.20;1.00;15.50;101241.00;;;;5099116;28;20497;-80
2021/04/04 10:15:43;;;;;;;14.47;8.83;;;13.30;1.00;15.70;101234.00;;;;5083808;28;20541;-79
2021/04/04 10:18:12;;;;;;;15.80;9.27;;;13.50;1.00;15.80;101239.00;;;;5096329;28;21223;-79
2021/04/04 10:20:44;;;;;;;17.07;10.30;;;13.70;1.00;16.00;101230.00;;;;5092286;28;20455;-79
2021/04/04 10:23:14;;;;;;;12.63;9.30;;;13.80;1.00;15.60;101226.00;;;;5093679;28;20581;-78
2021/04/04 10:25:59;;;;;;;17.10;10.27;;;13.60;1.00;15.20;101237.00;;;;5097677;28;20523;-79
2021/04/04 10:28:42;;;;;;;16.87;9.27;;;13.50;1.00;15.10;101246.00;;;;5091775;28;20449;-77
2021/04/04 10:31:10;;;;;;;17.30;8.93;;;13.20;1.00;15.10;101239.00;;;;5080686;28;20492;-78
2021/04/04 10:33:38;;;;;;;20.57;10.20;;;13.20;1.00;15.10;101236.00;;;;5079734;28;20565;-78
2021/04/04 10:36:24;;;;;;;17.80;10.10;;;13.00;1.00;15.10;101232.00;;;;5109711;28;20472;-78
2021/04/04 10:38:53;;;;;;;15.57;8.20;;;13.10;1.00;15.20;101226.00;;;;5093039;28;20454;-78
2021/04/04 10:41:30;;;;;;;14.87;9.67;;;13.00;1.00;15.10;101231.00;;;;5089087;28;20494;-78
2021/04/04 10:43:58;;;;;;;16.00;9.77;;;12.80;1.00;15.10;101240.00;;;;5089021;28;20445;-78
2021/04/04 10:46:29;;;;;;;14.87;8.60;;;12.80;1.00;14.80;101224.00;;;;5090914;28;20481;-79
2021/04/04 10:49:00;;;;;;;16.30;9.40;;;12.80;1.00;15.00;101225.00;;;;5090440;28;20455;-78
2021/04/04 10:51:30;;;;;;;21.27;9.83;;;13.00;1.00;15.10;101226.00;;;;5092470;28;20485;-79
2021/04/04 10:54:00;;;;;;;13.37;8.30;;;13.00;1.00;15.20;101214.00;;;;5096705;28;20458;-78
2021/04/04 10:56:30;;;;;;;17.63;10.30;;;13.10;1.00;15.40;101215.00;;;;5099530;28;20448;-79
2021/04/04 10:58:59;;;;;;;16.13;9.73;;;13.20;1.00;15.10;101213.00;;;;5086926;28;20544;-77
2021/04/04 11:01:31;;;;;;;13.80;8.73;;;13.10;1.00;14.90;101220.00;;;;5101462;28;20631;-78
2021/04/04 11:04:00;;;;;;;15.90;9.30;;;13.00;1.00;15.10;101201.00;;;;5087882;28;20474;-78
2021/04/04 11:06:29;;;;;;;18.03;10.70;;;13.00;1.00;15.40;101203.00;;;;5101540;28;20972;-78
2021/04/04 11:08:56;;;;;;;14.77;10.53;;;13.00;1.00;15.40;101194.00;;;;5102624;28;20923;-79
2021/04/04 11:11:25;;;;;;;16.20;10.67;;;13.10;1.00;15.50;101209.00;;;;5089067;28;21059;-79
2021/04/04 11:13:55;;;;;;;14.00;9.37;;;13.20;1.00;15.10;101196.00;;;;5090717;28;20971;-79
2021/04/04 11:16:26;;;;;;;17.07;10.20;;;13.10;1.00;15.00;101192.00;;;;5087991;28;20994;-78
2021/04/04 11:18:57;;;;;;;13.83;10.23;;;13.10;1.00;15.70;101180.00;;;;5088847;28;20455;-78
2021/04/04 11:21:28;;;;;;;16.20;9.03;;;13.70;1.00;15.80;101193.00;;;;5092094;28;20446;-79